Time;durP1;ratioP1;P1;durP2;ratioP2;P2;SDS_P1;SDS_P2;PMS_P1;PMS_P2;Temp;Humidity;BMP_temperature;BMP_pressure;BME280_temperature;BME280_humidity;BME280_pressure;Samples;Min_cycle;Max_cycle;Signal;HPM_P1;HPM_P2
2023/06/03 00:01:27;;;;;;;;;15.33;11.67;;;;;16.24;66.16;99479.34;6309891;20;3517055;-48
2023/06/03 00:03:54;;;;;;;;;12.00;9.00;;;;;16.20;66.41;99483.34;6313543;20;2764892;-49
2023/06/03 00:06:23;;;;;;;;;10.67;10.00;;;;;16.15;65.50;99481.03;6282180;20;2794142;-50
2023/06/03 00:08:51;;;;;;;;;10.00;10.00;;;;;16.15;66.27;99485.59;6317352;20;2787851;-51
2023/06/03 00:11:19;;;;;;;;;12.67;11.33;;;;;16.08;66.44;99473.56;6281892;20;2792042;-48
2023/06/03 00:13:47;;;;;;;;;11.00;11.00;;;;;15.99;66.33;99486.94;6319010;20;2792001;-47
2023/06/03 00:16:15;;;;;;;;;11.00;10.33;;;;;15.83;67.17;99485.72;6281653;20;3515937;-50
2023/06/03 00:18:44;;;;;;;;;10.33;10.33;;;;;15.77;67.81;99485.25;6313285;20;3500320;-50
2023/06/03 00:21:12;;;;;;;;;14.67;10.00;;;;;15.70;66.37;99483.19;6312674;20;2790911;-48
2023/06/03 00:23:41;;;;;;;;;12.60;9.20;;;;;15.78;66.85;99486.09;6338317;20;2770159;-52
2023/06/03 00:26:10;;;;;;;;;18.00;12.67;;;;;15.65;66.57;99491.69;6279168;20;3529454;-52
2023/06/03 00:28:38;;;;;;;;;19.00;14.00;;;;;15.56;67.25;99497.84;6311627;20;3539234;-47
2023/06/03 00:31:06;;;;;;;;;13.00;11.00;;;;;15.74;66.85;99503.59;6313335;20;2788917;-53
2023/06/03 00:33:34;;;;;;;;;11.67;10.67;;;;;15.69;67.77;99495.00;6311220;20;2789891;-48
2023/06/03 00:36:03;;;;;;;;;12.00;10.33;;;;;15.68;67.26;99498.69;6311346;20;3509676;-50
2023/06/03 00:38:31;;;;;;;;;13.00;12.00;;;;;15.65;67.32;99504.34;6310343;20;3518994;-49
2023/06/03 00:40:58;;;;;;;;;10.00;10.00;;;;;15.39;68.61;99504.72;6314512;20;2790328;-47
2023/06/03 00:43:26;;;;;;;;;11.00;9.67;;;;;15.57;68.15;99497.75;6281796;20;3507608;-49
2023/06/03 00:45:54;;;;;;;;;14.67;12.00;;;;;15.63;67.86;99506.31;6313409;20;3513829;-51
2023/06/03 00:48:22;;;;;;;;;13.00;11.00;;;;;15.51;68.27;99509.09;6315268;20;2789963;-50
2023/06/03 00:50:49;;;;;;;;;15.50;13.00;;;;;15.50;67.82;99512.78;6282466;20;2796158;-49
2023/06/03 00:53:17;;;;;;;;;11.50;11.00;;;;;15.45;68.63;99511.44;6284158;20;2788854;-50
2023/06/03 00:55:45;;;;;;;;;13.00;10.50;;;;;15.08;69.58;99518.09;6286600;20;2794081;-49
2023/06/03 00:58:12;;;;;;;;;12.00;11.50;;;;;15.05;70.26;99523.75;6283365;20;2789955;-52
2023/06/03 01:00:40;;;;;;;;;14.00;12.67;;;;;15.43;69.63;99521.53;6280370;20;3529435;-50
2023/06/03 01:03:13;;;;;;;;;16.00;14.00;;;;;14.86;71.64;99528.97;6311505;20;3534800;-50
2023/06/03 01:05:45;;;;;;;;;16.50;15.00;;;;;14.88;73.33;99521.59;6310331;20;2491981;-49
2023/06/03 01:08:23;;;;;;;;;16.67;12.67;;;;;14.94;72.55;99526.50;6279073;20;3527491;-50
2023/06/03 01:11:20;;;;;;;;;11.67;11.67;;;;;14.90;72.26;99522.31;6275883;20;3511908;-50
2023/06/03 01:13:56;;;;;;;;;13.00;11.67;;;;;14.54;74.29;99518.09;6309995;20;3511852;-51
2023/06/03 01:16:26;;;;;;;;;15.67;14.33;;;;;14.45;75.34;99525.03;6307694;20;3529564;-49
2023/06/03 01:18:57;;;;;;;;;12.33;10.67;;;;;14.33;76.30;99524.19;6276047;20;2783761;-51
2023/06/03 01:21:26;;;;;;;;;13.00;12.00;;;;;14.28;75.62;99519.16;6308557;20;2789820;-51
2023/06/03 01:23:56;;;;;;;;;16.67;15.00;;;;;14.21;76.35;99517.91;6308508;20;3531516;-50
2023/06/03 01:26:24;;;;;;;;;11.50;10.00;;;;;14.53;75.90;99517.22;6282179;20;2791989;-49
2023/06/03 01:28:51;;;;;;;;;19.00;16.00;;;;;14.53;75.76;99528.00;6281822;20;2826336;-50
2023/06/03 01:31:19;;;;;;;;;15.00;12.00;;;;;14.59;74.71;99516.72;6282370;20;2809847;-49
2023/06/03 01:33:46;;;;;;;;;16.00;15.00;;;;;14.57;74.98;99524.09;6282438;20;2806641;-47
2023/06/03 01:36:15;;;;;;;;;18.00;15.67;;;;;14.69;74.75;99517.72;6279458;20;3550216;-48
2023/06/03 01:38:43;;;;;;;;;15.00;14.00;;;;;14.52;74.77;99520.88;6282096;20;2815930;-49
2023/06/03 01:41:11;;;;;;;;;16.00;13.00;;;;;14.54;75.13;99535.16;6278097;20;2496228;-48
2023/06/03 01:43:38;;;;;;;;;14.00;14.00;;;;;14.43;76.06;99533.28;6283551;20;2798238;-50
2023/06/03 01:46:05;;;;;;;;;14.00;13.00;;;;;14.49;75.86;99537.34;6282396;20;2790971;-51
2023/06/03 01:48:33;;;;;;;;;15.50;14.00;;;;;14.52;76.80;99531.69;6279962;20;2781564;-47
2023/06/03 01:51:02;;;;;;;;;13.67;13.00;;;;;14.23;77.15;99537.56;6283739;20;3517250;-50
2023/06/03 01:53:29;;;;;;;;;12.50;12.50;;;;;14.39;76.52;99541.75;6318248;20;2796112;-47
2023/06/03 01:55:57;;;;;;;;;13.50;13.00;;;;;14.47;75.88;99542.00;6288822;20;2801348;-53
2023/06/03 01:58:24;;;;;;;;;17.00;15.50;;;;;14.32;77.16;99540.50;6286680;20;2808584;-51
2023/06/03 02:00:51;;;;;;;;;18.00;16.00;;;;;14.28;78.02;99540.75;6288686;20;2828420;-50
2023/06/03 02:03:35;;;;;;;;;15.50;15.00;;;;;14.12;79.02;99545.66;6285221;20;2817016;-48
2023/06/03 02:06:03;;;;;;;;;20.00;14.50;;;;;14.24;78.71;99541.13;6284616;20;2811853;-53
2023/06/03 02:08:31;;;;;;;;;13.00;13.00;;;;;14.11;79.06;99549.31;6283055;20;3520075;-49
2023/06/03 02:10:59;;;;;;;;;15.00;14.00;;;;;13.96;79.59;99551.41;6314758;20;2792085;-47
2023/06/03 02:13:27;;;;;;;;;18.00;17.00;;;;;13.96;79.44;99547.84;6279952;20;3555575;-50
2023/06/03 02:15:55;;;;;;;;;14.33;14.00;;;;;13.97;79.29;99552.25;6284761;20;3518068;-50
2023/06/03 02:18:24;;;;;;;;;16.67;13.00;;;;;14.21;78.90;99550.31;6314956;20;3535671;-47
2023/06/03 02:20:52;;;;;;;;;19.00;15.00;;;;;13.97;80.07;99553.09;6315580;20;3544024;-49
2023/06/03 02:23:21;;;;;;;;;19.67;16.33;;;;;13.92;79.08;99560.69;6280406;20;3553430;-50
2023/06/03 02:25:49;;;;;;;;;16.67;15.33;;;;;13.96;79.56;99561.34;6282949;20;3556551;-49
2023/06/03 02:28:22;;;;;;;;;15.33;15.00;;;;;13.95;78.97;99554.19;6282273;20;3544104;-47
2023/06/03 02:30:49;;;;;;;;;14.00;12.00;;;;;13.89;79.02;99560.09;6285802;20;2799275;-50
2023/06/03 02:33:18;;;;;;;;;13.00;13.00;;;;;13.94;79.88;99561.44;6284512;20;3536735;-47
2023/06/03 02:35:45;;;;;;;;;17.50;15.00;;;;;13.60;81.86;99558.63;6286329;20;2816931;-49
2023/06/03 02:38:14;;;;;;;;;14.00;12.50;;;;;13.79;81.68;99562.63;6285113;20;2609699;-50
2023/06/03 02:40:42;;;;;;;;;13.33;12.33;;;;;13.75;81.15;99564.72;6282175;20;3514846;-47
2023/06/03 02:43:10;;;;;;;;;16.00;13.00;;;;;13.61;81.26;99559.50;6314129;20;3520107;-50
2023/06/03 02:45:37;;;;;;;;;12.00;12.00;;;;;13.81;81.52;99558.81;6286741;20;2801351;-52
2023/06/03 02:48:05;;;;;;;;;15.00;13.00;;;;;13.47;82.14;99565.94;6286975;20;2795069;-52
2023/06/03 02:50:34;;;;;;;;;16.00;15.00;;;;;13.89;81.87;99577.13;6283443;20;3542012;-50
2023/06/03 02:53:02;;;;;;;;;14.33;14.00;;;;;13.66;82.63;99586.97;6284229;20;3527348;-52
2023/06/03 02:55:33;;;;;;;;;15.50;15.00;;;;;13.43;84.55;99593.25;6317440;20;2812790;-49
2023/06/03 02:58:00;;;;;;;;;15.33;14.33;;;;;13.41;84.15;99593.38;6294811;20;1809698;-50
2023/06/03 03:00:30;;;;;;;;;14.33;13.33;;;;;13.28;85.05;99593.44;6280950;20;3525310;-50
2023/06/03 03:02:58;;;;;;;;;12.67;12.67;;;;;13.44;84.15;99592.28;6313346;20;3515917;-47
2023/06/03 03:05:27;;;;;;;;;14.67;11.67;;;;;13.40;84.85;99605.13;6312674;20;3515944;-50
2023/06/03 03:07:55;;;;;;;;;15.00;13.50;;;;;13.58;84.06;99610.97;6317964;20;2802426;-51
2023/06/03 03:10:22;;;;;;;;;12.00;12.00;;;;;13.46;85.25;99610.09;6284334;20;2797360;-49
2023/06/03 03:12:50;;;;;;;;;13.00;13.00;;;;;13.37;85.42;99614.31;6281934;20;3527399;-54
2023/06/03 03:15:19;;;;;;;;;16.67;13.67;;;;;13.22;86.14;99614.53;6279895;20;2796185;-49
2023/06/03 03:17:46;;;;;;;;;12.00;11.50;;;;;13.12;86.95;99617.09;6318814;20;2806528;-50
2023/06/03 03:20:14;;;;;;;;;16.00;16.00;;;;;13.16;87.47;99613.16;6283128;20;2823172;-50
2023/06/03 03:22:46;;;;;;;;;16.67;15.00;;;;;13.04;88.50;99616.78;6280898;20;3541950;-47
2023/06/03 03:25:14;;;;;;;;;17.00;14.00;;;;;13.14;88.59;99612.44;6279748;20;3539896;-49
2023/06/03 03:27:43;;;;;;;;;19.33;14.00;;;;;12.86;89.32;99618.97;6283638;20;2819057;-51
2023/06/03 03:30:10;;;;;;;;;16.50;14.50;;;;;12.80;88.94;99619.44;6309432;20;2494142;-47
2023/06/03 03:32:39;;;;;;;;;16.00;15.00;;;;;12.91;89.40;99622.19;6279751;20;3555489;-47
2023/06/03 03:35:19;;;;;;;;;15.67;13.67;;;;;12.94;89.87;99622.81;6281499;20;3545071;-49
2023/06/03 03:38:01;;;;;;;;;14.67;13.00;;;;;13.09;89.25;99623.56;6280080;20;3528390;-49
2023/06/03 03:40:32;;;;;;;;;11.00;11.00;;;;;13.16;89.56;99643.72;6312244;20;3515009;-50
2023/06/03 03:43:02;;;;;;;;;13.00;13.00;;;;;13.02;89.76;99640.28;6314796;20;3532606;-50
2023/06/03 03:45:37;;;;;;;;;19.67;16.33;;;;;13.39;86.97;99642.03;6278558;20;3560738;-52
2023/06/03 03:48:16;;;;;;;;;15.00;15.00;;;;;13.55;86.71;99649.00;6282298;20;2483811;-51
2023/06/03 03:50:52;;;;;;;;;13.00;13.00;;;;;13.35;86.40;99651.34;6283745;20;3527349;-51
2023/06/03 03:53:28;;;;;;;;;15.00;12.50;;;;;13.39;86.78;99652.81;6316293;20;2783650;-51
2023/06/03 03:55:57;;;;;;;;;20.50;15.00;;;;;13.28;87.44;99652.75;6283342;20;2819053;-50
2023/06/03 03:58:40;;;;;;;;;14.00;13.50;;;;;13.52;87.12;99660.00;6283237;20;2806682;-50
2023/06/03 04:01:22;;;;;;;;;16.67;14.33;;;;;13.53;88.14;99661.72;6284027;20;3536713;-50
2023/06/03 04:03:54;;;;;;;;;15.67;15.67;;;;;13.56;87.71;99672.28;6277865;20;3548205;-49
2023/06/03 04:06:32;;;;;;;;;17.33;17.00;;;;;13.39;86.98;99670.84;6281728;20;3568384;-50
2023/06/03 04:09:01;;;;;;;;;17.50;16.50;;;;;13.53;88.14;99676.09;6281615;20;2821214;-51
2023/06/03 04:11:41;;;;;;;;;19.67;15.33;;;;;13.80;86.00;99670.47;6276454;20;3551337;-49
2023/06/03 04:14:10;;;;;;;;;16.50;16.00;;;;;13.59;87.89;99669.38;6278131;20;2491958;-52
2023/06/03 04:16:55;;;;;;;;;17.00;14.00;;;;;14.09;85.69;99670.09;6284443;20;2813014;-52
2023/06/03 04:19:30;;;;;;;;;13.00;11.00;;;;;14.28;82.46;99670.38;6286956;20;2786743;-47
2023/06/03 04:21:59;;;;;;;;;12.50;10.50;;;;;14.37;81.35;99674.22;6285006;20;2796122;-47
2023/06/03 04:24:28;;;;;;;;;13.00;11.00;;;;;14.41;81.27;99670.31;6286125;20;2791947;-51
2023/06/03 04:26:56;;;;;;;;;11.50;11.00;;;;;14.77;80.38;99664.84;6282355;20;2796296;-52
2023/06/03 04:29:24;;;;;;;;;9.67;9.67;;;;;14.56;80.22;99672.81;6281628;20;3496122;-49
2023/06/03 04:31:53;;;;;;;;;7.80;6.60;;;;;14.73;79.56;99676.91;6338036;20;2748632;-49
2023/06/03 04:34:21;;;;;;;;;13.00;10.00;;;;;14.73;79.83;99685.00;6312014;20;2788977;-46
2023/06/03 04:36:49;;;;;;;;;10.67;9.67;;;;;14.93;79.85;99687.00;6310467;20;2807613;-50
2023/06/03 04:39:19;;;;;;;;;12.20;9.40;;;;;15.18;77.44;99685.88;6336219;20;2775276;-48
2023/06/03 04:41:46;;;;;;;;;8.00;6.00;;;;;15.13;76.75;99694.34;6285972;20;2735693;-49
2023/06/03 04:44:13;;;;;;;;;11.00;6.50;;;;;15.38;75.68;99695.09;6284551;20;2769035;-50
2023/06/03 04:46:45;;;;;;;;;6.00;6.00;;;;;15.31;74.88;99692.00;6307653;20;2744153;-48
2023/06/03 04:49:13;;;;;;;;;7.00;6.50;;;;;15.53;75.09;99688.44;6312650;20;2735723;-50
2023/06/03 04:51:44;;;;;;;;;7.00;7.00;;;;;15.71;74.66;99691.47;6324919;20;3453805;-49
2023/06/03 04:54:16;;;;;;;;;9.43;7.00;;;;;15.74;74.72;99703.91;6359059;20;3460418;-47
2023/06/03 04:56:45;;;;;;;;;9.00;8.00;;;;;15.79;73.63;99697.13;6314647;20;2746173;-50
2023/06/03 04:59:12;;;;;;;;;5.50;5.50;;;;;15.86;74.03;99702.03;6283833;20;2740946;-49
2023/06/03 05:01:40;;;;;;;;;7.00;7.00;;;;;15.99;71.55;99703.59;6284048;20;2734706;-48
2023/06/03 05:04:11;;;;;;;;;8.50;6.50;;;;;15.62;72.53;99697.63;6284911;20;2739856;-50
2023/06/03 05:06:40;;;;;;;;;6.20;5.20;;;;;16.27;70.74;99712.06;6305652;20;2741960;-49
2023/06/03 05:09:09;;;;;;;;;6.00;6.00;;;;;16.00;71.11;99717.97;6315283;20;2739866;-51
2023/06/03 05:11:37;;;;;;;;;6.50;6.50;;;;;16.33;70.22;99711.56;6281817;20;2731555;-52
2023/06/03 05:14:06;;;;;;;;;8.00;5.00;;;;;16.39;69.97;99718.31;6282791;20;2731554;-47
2023/06/03 05:16:34;;;;;;;;;7.00;5.00;;;;;16.97;67.72;99720.59;6283841;20;2750868;-47
2023/06/03 05:19:01;;;;;;;;;5.00;5.00;;;;;17.08;66.57;99723.19;6283008;20;2746232;-47
2023/06/03 05:21:30;;;;;;;;;4.20;4.20;;;;;16.77;67.13;99719.56;6308943;20;2748237;-50
2023/06/03 05:23:57;;;;;;;;;5.50;4.00;;;;;16.40;68.50;99720.91;6318017;20;2743031;-48
2023/06/03 05:26:27;;;;;;;;;6.20;5.20;;;;;16.73;67.01;99721.69;6313629;20;2742048;-48
2023/06/03 05:28:54;;;;;;;;;5.50;5.50;;;;;17.11;66.71;99728.34;6321339;20;2733632;-51
2023/06/03 05:31:21;;;;;;;;;8.50;6.50;;;;;17.06;67.28;99730.59;6289480;20;2739953;-48
2023/06/03 05:33:49;;;;;;;;;7.00;7.00;;;;;17.16;65.40;99738.81;6289188;20;2746104;-47
2023/06/03 05:36:18;;;;;;;;;6.00;5.00;;;;;17.17;66.40;99733.25;6314787;20;2748220;-49
2023/06/03 05:38:45;;;;;;;;;6.50;5.00;;;;;16.88;65.74;99733.97;6317882;20;2744082;-49
2023/06/03 05:41:13;;;;;;;;;7.50;6.00;;;;;17.04;67.06;99741.63;6294945;20;2746125;-47
2023/06/03 05:43:40;;;;;;;;;6.00;6.00;;;;;17.12;65.54;99735.50;6289845;20;2743008;-51
2023/06/03 05:46:10;;;;;;;;;6.20;5.60;;;;;17.40;66.62;99746.63;6313809;20;2738848;-48
2023/06/03 05:48:37;;;;;;;;;5.00;5.00;;;;;17.75;65.00;99749.75;6320796;20;2747155;-47
2023/06/03 05:51:05;;;;;;;;;6.00;5.50;;;;;17.80;64.13;99751.22;6288328;20;2741918;-50
2023/06/03 05:53:32;;;;;;;;;8.00;6.00;;;;;17.65;63.38;99748.00;6289746;20;2741953;-47
2023/06/03 05:56:00;;;;;;;;;7.00;5.00;;;;;18.02;64.15;99755.56;6288064;20;2741940;-52
2023/06/03 05:58:27;;;;;;;;;6.00;4.00;;;;;17.76;64.25;99751.47;6291808;20;2754448;-49
2023/06/03 06:00:55;;;;;;;;;7.00;7.00;;;;;17.45;64.79;99747.94;6292035;20;2743215;-54
2023/06/03 06:03:22;;;;;;;;;8.00;6.50;;;;;17.74;63.82;99753.44;6296491;20;2737825;-48
2023/06/03 06:05:51;;;;;;;;;6.40;6.40;;;;;17.85;62.82;99752.53;6315627;20;2737815;-52
2023/06/03 06:08:19;;;;;;;;;8.00;6.50;;;;;17.53;63.54;99749.97;6318123;20;2737751;-48
2023/06/03 06:10:46;;;;;;;;;5.00;5.00;;;;;17.68;62.48;99759.44;6289999;20;2745076;-50
2023/06/03 06:13:17;;;;;;;;;6.50;5.17;;;;;18.05;61.27;99761.56;6332210;20;1796133;-46
2023/06/03 06:16:03;;;;;;;;;5.60;5.60;;;;;17.77;61.10;99769.50;6345316;20;2739885;-48
2023/06/03 06:18:30;;;;;;;;;6.50;5.50;;;;;17.16;62.83;99764.09;6320616;20;2736891;-51
2023/06/03 06:20:59;;;;;;;;;8.50;7.00;;;;;17.60;63.22;99772.84;6290853;20;2740293;-52
2023/06/03 06:23:29;;;;;;;;;7.00;7.00;;;;;17.63;61.83;99775.28;6312375;20;2737805;-50
2023/06/03 06:25:58;;;;;;;;;5.40;5.00;;;;;17.38;62.47;99770.31;6342652;20;2754461;-50
2023/06/03 06:28:28;;;;;;;;;7.00;5.80;;;;;17.80;61.77;99775.66;6342417;20;2732626;-48
2023/06/03 06:31:04;;;;;;;;;8.80;7.20;;;;;18.00;62.47;99782.88;6340688;20;2757847;-50
2023/06/03 06:33:35;;;;;;;;;7.00;6.00;;;;;18.31;61.70;99782.78;6316179;20;2736769;-51
2023/06/03 06:36:33;;;;;;;;;5.00;5.00;;;;;18.63;60.02;99787.94;6287496;20;2748264;-51
2023/06/03 06:39:00;;;;;;;;;6.50;6.50;;;;;18.86;58.62;99789.38;6286757;20;2738968;-52
2023/06/03 06:41:28;;;;;;;;;5.50;5.50;;;;;18.45;57.17;99793.22;6288813;20;2732699;-49
2023/06/03 06:43:55;;;;;;;;;7.00;4.00;;;;;18.42;53.86;99790.78;6289845;20;2747159;-52
2023/06/03 06:46:24;;;;;;;;;5.00;5.00;;;;;18.49;53.15;99786.50;6288952;20;2751435;-49
2023/06/03 06:48:52;;;;;;;;;4.00;4.00;;;;;18.24;53.38;99790.63;6286180;20;2749286;-53
2023/06/03 06:51:19;;;;;;;;;5.00;3.50;;;;;18.52;53.64;99790.81;6288911;20;2739869;-49
2023/06/03 06:53:51;;;;;;;;;4.00;4.00;;;;;19.08;52.92;99788.19;6286901;20;2747259;-50
2023/06/03 06:56:19;;;;;;;;;5.00;5.00;;;;;18.60;52.95;99789.06;6288657;20;2743072;-52
2023/06/03 06:58:46;;;;;;;;;4.00;4.00;;;;;20.02;51.16;99790.00;6289238;20;2754487;-51
2023/06/03 07:01:13;;;;;;;;;4.00;4.00;;;;;19.13;53.18;99801.38;6289022;20;2736869;-53
2023/06/03 07:03:42;;;;;;;;;7.60;4.00;;;;;20.03;50.03;99797.16;6310423;20;2744156;-51
2023/06/03 07:06:12;;;;;;;;;4.20;3.60;;;;;20.32;49.42;99805.16;6337927;20;2756578;-49
2023/06/03 07:08:41;;;;;;;;;4.00;4.00;;;;;20.52;47.92;99810.47;6307624;20;2747259;-50
2023/06/03 07:11:10;;;;;;;;;3.00;3.00;;;;;20.55;46.76;99799.28;6339755;20;2752406;-52
2023/06/03 07:13:38;;;;;;;;;3.00;3.00;;;;;20.46;47.95;99811.06;6309742;20;2735734;-47
2023/06/03 07:16:06;;;;;;;;;2.67;2.67;;;;;19.91;43.58;99812.03;6320498;20;2734689;-53
2023/06/03 07:18:35;;;;;;;;;3.67;2.67;;;;;20.37;42.21;99813.72;6314872;20;2741034;-49
2023/06/03 07:21:03;;;;;;;;;2.00;2.00;;;;;20.14;41.23;99820.63;6323014;20;2729507;-53
2023/06/03 07:23:33;;;;;;;;;3.00;3.00;;;;;20.15;40.23;99819.63;6319236;20;2738919;-53
2023/06/03 07:26:04;;;;;;;;;4.67;3.00;;;;;20.80;40.12;99816.72;6321400;20;2756580;-48
2023/06/03 07:28:35;;;;;;;;;3.20;3.00;;;;;21.66;39.28;99827.78;6342095;20;2747318;-49
2023/06/03 07:31:09;;;;;;;;;4.00;2.67;;;;;21.65;39.31;99830.69;6287848;20;2735741;-48
2023/06/03 07:33:52;;;;;;;;;2.00;2.00;;;;;21.57;38.69;99833.38;6339371;20;2744033;-51
2023/06/03 07:36:22;;;;;;;;;2.00;2.00;;;;;20.42;39.62;99831.50;6317044;20;2746194;-51
2023/06/03 07:39:07;;;;;;;;;2.00;2.00;;;;;19.57;39.94;99831.63;6316229;20;2739930;-49
2023/06/03 07:41:38;;;;;;;;;2.00;2.00;;;;;20.11;39.78;99835.41;6315601;20;2756535;-47
2023/06/03 07:44:12;;;;;;;;;2.00;2.00;;;;;21.25;38.53;99835.72;6318696;20;2727390;-52
2023/06/03 07:46:52;;;;;;;;;3.33;2.00;;;;;21.37;37.69;99840.91;6300579;20;2756542;-47
2023/06/03 07:49:22;;;;;;;;;4.33;2.67;;;;;21.73;36.72;99840.81;6312524;20;2741899;-46
2023/06/03 07:51:54;;;;;;;;;3.60;1.60;;;;;21.53;37.23;99846.50;6338056;20;2747193;-51
2023/06/03 07:54:23;;;;;;;;;4.40;2.00;;;;;21.12;38.21;99845.34;6300639;20;2756668;-47
2023/06/03 07:56:55;;;;;;;;;4.00;3.60;;;;;20.71;37.47;99844.97;6303027;20;2756601;-47
2023/06/03 07:59:24;;;;;;;;;2.00;1.80;;;;;20.32;39.48;99843.31;6298857;20;2741965;-50
2023/06/03 08:01:53;;;;;;;;;3.33;3.00;;;;;19.98;40.72;99844.97;6312408;20;2748243;-51
2023/06/03 08:04:35;;;;;;;;;2.67;2.33;;;;;21.58;39.04;99846.03;6313884;20;2738303;-47
2023/06/03 08:07:05;;;;;;;;;2.67;2.67;;;;;21.30;37.85;99858.94;6313085;20;2750333;-49
2023/06/03 08:09:36;;;;;;;;;3.60;3.60;;;;;21.53;37.40;99864.78;6334475;20;2751370;-51
2023/06/03 08:12:08;;;;;;;;;3.40;3.40;;;;;22.35;36.92;99855.09;6334494;20;2739909;-48
2023/06/03 08:14:39;;;;;;;;;3.00;3.00;;;;;22.44;36.03;99862.34;6315658;20;2744044;-47
2023/06/03 08:17:10;;;;;;;;;5.20;3.00;;;;;22.49;35.92;99864.56;6337782;20;2752361;-50
2023/06/03 08:19:39;;;;;;;;;7.00;4.33;;;;;22.49;34.04;99862.69;6284976;20;2751322;-48
2023/06/03 08:22:43;;;;;;;;;5.00;3.60;;;;;21.37;36.61;99854.56;6339548;20;2748624;-48
2023/06/03 08:25:12;;;;;;;;;4.67;2.67;;;;;22.27;35.78;99866.88;6316644;20;2746212;-50
2023/06/03 08:27:42;;;;;;;;;3.00;1.80;;;;;22.11;34.37;99870.38;6337754;20;2746243;-50
2023/06/03 08:30:12;;;;;;;;;3.00;3.00;;;;;22.28;35.51;99867.75;6338139;20;2754495;-50
2023/06/03 08:32:43;;;;;;;;;3.60;3.60;;;;;22.83;35.19;99859.00;6307286;20;2748359;-49
2023/06/03 08:35:14;;;;;;;;;4.00;4.00;;;;;23.03;34.91;99865.03;6278370;20;2753439;-49
2023/06/03 08:37:43;;;;;;;;;4.00;2.60;;;;;23.63;35.60;99866.53;6335966;20;2756597;-50
2023/06/03 08:40:16;;;;;;;;;2.00;2.00;;;;;22.95;35.06;99860.34;6304321;20;2754584;-48
2023/06/03 08:43:02;;;;;;;;;2.14;2.14;;;;;23.16;34.13;99868.09;6320249;20;3451752;-46
2023/06/03 08:45:59;;;;;;;;;4.20;4.20;;;;;22.70;34.41;99864.13;6334157;20;2742066;-52
2023/06/03 08:48:43;;;;;;;;;3.80;3.80;;;;;22.72;32.86;99867.50;6328749;20;2741977;-49
2023/06/03 08:51:15;;;;;;;;;4.80;3.00;;;;;23.26;33.10;99862.44;6331519;20;2741998;-48
2023/06/03 08:53:50;;;;;;;;;2.40;1.00;;;;;24.02;34.07;99876.72;6334557;20;2752379;-49
2023/06/03 08:56:20;;;;;;;;;3.20;3.20;;;;;23.86;33.59;99873.00;6305421;20;2744165;-50
2023/06/03 08:59:01;;;;;;;;;3.00;3.00;;;;;24.08;32.82;99876.00;6301687;20;2741948;-48
2023/06/03 09:01:35;;;;;;;;;4.40;3.20;;;;;23.98;34.49;99875.38;6337375;20;2756554;-54
2023/06/03 09:04:05;;;;;;;;;3.00;3.00;;;;;23.93;33.00;99880.53;6302334;20;2744085;-57
2023/06/03 09:06:34;;;;;;;;;2.80;2.80;;;;;23.82;32.23;99868.03;6336953;20;2756663;-59
2023/06/03 09:09:05;;;;;;;;;3.60;2.40;;;;;23.96;33.86;99880.16;6305176;20;2748292;-59
2023/06/03 09:11:37;;;;;;;;;4.00;4.00;;;;;23.48;33.00;99879.22;6304163;20;2753869;-59
2023/06/03 09:14:09;;;;;;;;;5.60;4.00;;;;;23.19;36.06;99881.44;6301716;20;2731560;-59
2023/06/03 09:16:39;;;;;;;;;8.50;7.00;;;;;22.71;38.78;99877.63;6335964;20;2612918;-59
2023/06/03 09:19:07;;;;;;;;;8.33;7.00;;;;;22.98;36.44;99884.69;6309347;20;2753428;-60
2023/06/03 09:21:37;;;;;;;;;7.00;5.60;;;;;23.67;34.68;99874.22;6334727;20;2741975;-59
2023/06/03 09:24:06;;;;;;;;;5.80;4.60;;;;;24.09;35.88;99877.72;6302205;20;2739896;-59
2023/06/03 09:26:34;;;;;;;;;9.67;8.67;;;;;24.17;35.93;99885.94;6312538;20;2758700;-59
2023/06/03 09:29:02;;;;;;;;;9.67;7.00;;;;;22.49;38.65;99881.00;6308509;20;2749347;-59
2023/06/03 09:31:31;;;;;;;;;8.33;7.33;;;;;23.26;37.98;99878.03;6309075;20;2740866;-59
2023/06/03 09:33:59;;;;;;;;;2.00;1.67;;;;;23.49;35.77;99881.78;6312477;20;2728457;-59
2023/06/03 09:36:28;;;;;;;;;2.60;2.60;;;;;23.94;33.95;99893.22;6338755;20;2739866;-59
2023/06/03 09:38:57;;;;;;;;;3.20;3.20;;;;;24.62;33.53;99891.72;6335302;20;2750312;-59
2023/06/03 09:41:28;;;;;;;;;5.00;3.00;;;;;23.85;33.93;99890.47;6304002;20;2745079;-59
2023/06/03 09:44:02;;;;;;;;;4.60;3.00;;;;;23.56;33.31;99891.00;6304762;20;2747564;-59
2023/06/03 09:46:33;;;;;;;;;4.60;3.00;;;;;22.34;35.17;99886.25;6305427;20;2739878;-59
2023/06/03 09:49:16;;;;;;;;;4.33;2.67;;;;;22.70;35.86;99883.28;6308202;20;2748261;-59
2023/06/03 09:52:09;;;;;;;;;8.00;8.00;;;;;23.15;35.08;99873.75;6308984;20;2742154;-59
2023/06/03 09:54:37;;;;;;;;;4.00;4.00;;;;;22.90;34.13;99875.59;6310267;20;2752940;-58
2023/06/03 09:57:13;;;;;;;;;3.60;3.40;;;;;23.06;35.03;99874.78;6334276;20;2747213;-59
2023/06/03 09:59:43;;;;;;;;;5.00;5.00;;;;;22.31;36.98;99871.00;6333368;20;2743146;-58
2023/06/03 10:02:12;;;;;;;;;3.00;3.00;;;;;22.04;38.60;99872.06;6298793;20;2750440;-59
2023/06/03 10:04:46;;;;;;;;;5.67;5.67;;;;;22.20;36.40;99867.72;6312659;20;2743996;-58
2023/06/03 10:07:17;;;;;;;;;3.00;3.00;;;;;22.05;38.28;99862.84;6336145;20;2753418;-60
2023/06/03 10:09:47;;;;;;;;;8.40;6.40;;;;;22.68;36.36;99877.09;6304647;20;2746121;-58
2023/06/03 10:12:29;;;;;;;;;3.80;3.80;;;;;23.56;36.19;99876.47;6341839;20;2749243;-59
2023/06/03 10:15:01;;;;;;;;;8.40;6.20;;;;;23.64;36.66;99868.22;6308742;20;2746166;-58
2023/06/03 10:17:29;;;;;;;;;9.33;9.33;;;;;23.64;37.34;99870.97;6280473;20;2762876;-54
2023/06/03 10:19:58;;;;;;;;;9.33;8.00;;;;;23.48;37.86;99881.97;6320924;20;2766944;-58
2023/06/03 10:22:26;;;;;;;;;10.33;10.33;;;;;22.80;37.86;99864.78;6310509;20;2789879;-60
2023/06/03 10:24:58;;;;;;;;;8.00;7.00;;;;;22.82;38.00;99873.69;6331708;20;2759792;-57
2023/06/03 10:27:30;;;;;;;;;10.33;9.00;;;;;23.05;38.38;99870.34;6310709;20;2762784;-60
2023/06/03 10:29:59;;;;;;;;;10.67;8.67;;;;;22.50;39.15;99869.88;6303604;20;2758608;-59
2023/06/03 10:32:30;;;;;;;;;6.20;6.00;;;;;23.07;37.75;99871.03;6336595;20;2741968;-58
2023/06/03 10:34:59;;;;;;;;;5.00;5.00;;;;;23.47;36.31;99872.03;6299319;20;2749255;-60
2023/06/03 10:37:29;;;;;;;;;7.20;6.00;;;;;23.21;34.88;99873.06;6307214;20;2738829;-59
2023/06/03 10:40:00;;;;;;;;;4.20;4.20;;;;;22.90;35.84;99865.47;6334552;20;2745101;-60
2023/06/03 10:42:29;;;;;;;;;6.33;5.67;;;;;23.53;35.47;99871.34;6286527;20;2739872;-60
2023/06/03 10:44:59;;;;;;;;;6.80;5.60;;;;;23.73;35.50;99869.97;6338776;20;2740927;-60
2023/06/03 10:47:31;;;;;;;;;6.20;5.60;;;;;24.32;35.14;99873.16;6307749;20;2734678;-53
2023/06/03 10:50:30;;;;;;;;;5.40;5.40;;;;;23.83;34.50;99867.88;6306391;20;2735030;-52
2023/06/03 10:53:08;;;;;;;;;6.60;5.00;;;;;23.99;34.25;99866.13;6301009;20;2727455;-57
2023/06/03 10:56:10;;;;;;;;;7.00;5.80;;;;;23.70;35.77;99873.03;6337593;20;2742080;-54
2023/06/03 10:58:43;;;;;;;;;5.40;4.40;;;;;24.03;35.67;99862.81;6299730;20;2748845;-57
2023/06/03 11:01:11;;;;;;;;;3.67;3.67;;;;;24.64;34.32;99860.31;6280633;20;2750282;-58
2023/06/03 11:03:52;;;;;;;;;5.60;5.00;;;;;24.58;34.23;99861.06;6337575;20;2748185;-58
2023/06/03 11:06:21;;;;;;;;;4.60;4.60;;;;;24.57;33.96;99862.09;6306553;20;2752469;-59
2023/06/03 11:09:00;;;;;;;;;8.00;5.40;;;;;23.63;34.88;99866.53;6330144;20;2753542;-57
2023/06/03 11:11:41;;;;;;;;;6.80;5.80;;;;;24.11;34.38;99850.97;6295021;20;2746095;-60
2023/06/03 11:14:25;;;;;;;;;4.00;4.00;;;;;23.50;34.07;99849.75;6332359;20;2747269;-59
2023/06/03 11:16:57;;;;;;;;;4.33;4.33;;;;;23.33;34.52;99854.38;6273399;20;2729512;-59
2023/06/03 11:19:33;;;;;;;;;3.00;3.00;;;;;23.27;34.39;99852.34;6323841;20;2756668;-58
2023/06/03 11:22:09;;;;;;;;;7.33;5.00;;;;;22.41;34.42;99843.53;6270554;20;2750819;-55
2023/06/03 11:24:38;;;;;;;;;4.60;4.60;;;;;23.08;35.29;99842.59;6336892;20;2740323;-58
2023/06/03 11:27:13;;;;;;;;;6.00;4.00;;;;;24.12;34.55;99841.72;6334047;20;2745091;-59
2023/06/03 11:29:49;;;;;;;;;3.40;3.40;;;;;23.68;35.67;99844.91;6300765;20;2754454;-58